sensor_id;sensor_type;location;lat;lon;timestamp;pressure;altitude;pressure_sealevel;temperature;humidity
11415;BME280;5763;42.714;23.244;2024-01-07T00:02:16;93078.72;;;8.19;70.73
11415;BME280;5763;42.714;23.244;2024-01-07T00:04:46;92916.72;;;7.11;71.03
11415;BME280;5763;42.714;23.244;2024-01-07T00:07:13;93116.78;;;8.28;70.87
11415;BME280;5763;42.714;23.244;2024-01-07T00:09:41;93088.06;;;8.27;71.00
11415;BME280;5763;42.714;23.244;2024-01-07T00:12:09;93113.34;;;8.27;71.43
11415;BME280;5763;42.714;23.244;2024-01-07T00:14:36;92992.34;;;7.70;71.73
11415;BME280;5763;42.714;23.244;2024-01-07T00:17:06;93067.47;;;8.26;71.47
11415;BME280;5763;42.714;23.244;2024-01-07T00:19:33;92900.97;;;7.15;70.60
11415;BME280;5763;42.714;23.244;2024-01-07T00:22:03;92959.47;;;7.54;70.65
11415;BME280;5763;42.714;23.244;2024-01-07T00:24:31;92991.69;;;7.75;70.35
11415;BME280;5763;42.714;23.244;2024-01-07T00:26:58;92870.78;;;6.98;70.33
11415;BME280;5763;42.714;23.244;2024-01-07T00:29:26;93047.59;;;8.20;70.64
11415;BME280;5763;42.714;23.244;2024-01-07T00:31:54;92842.88;;;6.83;70.45
11415;BME280;5763;42.714;23.244;2024-01-07T00:34:23;92846.72;;;6.91;70.68
11415;BME280;5763;42.714;23.244;2024-01-07T00:36:53;92866.16;;;6.84;71.90
11415;BME280;5763;42.714;23.244;2024-01-07T00:39:21;92902.88;;;7.43;72.68
11415;BME280;5763;42.714;23.244;2024-01-07T00:41:48;92932.88;;;7.63;73.04
11415;BME280;5763;42.714;23.244;2024-01-07T00:44:16;92940.97;;;7.92;72.31
11415;BME280;5763;42.714;23.244;2024-01-07T00:46:43;93029.91;;;8.30;72.67
11415;BME280;5763;42.714;23.244;2024-01-07T00:49:11;92965.47;;;7.92;73.20
11415;BME280;5763;42.714;23.244;2024-01-07T00:51:41;92920.47;;;7.97;72.80
11415;BME280;5763;42.714;23.244;2024-01-07T00:54:08;92912.63;;;8.04;72.46
11415;BME280;5763;42.714;23.244;2024-01-07T00:56:36;92897.09;;;7.90;72.38
11415;BME280;5763;42.714;23.244;2024-01-07T00:59:03;92868.56;;;7.66;72.37
11415;BME280;5763;42.714;23.244;2024-01-07T01:01:31;92867.13;;;7.70;71.27
11415;BME280;5763;42.714;23.244;2024-01-07T01:03:58;92979.06;;;8.27;71.83
11415;BME280;5763;42.714;23.244;2024-01-07T01:06:26;92908.66;;;7.85;72.16
11415;BME280;5763;42.714;23.244;2024-01-07T01:08:55;92917.69;;;7.91;72.27
11415;BME280;5763;42.714;23.244;2024-01-07T01:11:22;92797.72;;;7.20;72.13
11415;BME280;5763;42.714;23.244;2024-01-07T01:13:50;92911.88;;;7.84;72.60
11415;BME280;5763;42.714;23.244;2024-01-07T01:16:21;92989.63;;;8.39;72.74
11415;BME280;5763;42.714;23.244;2024-01-07T01:18:50;92849.59;;;7.71;72.07
11415;BME280;5763;42.714;23.244;2024-01-07T01:21:17;92854.09;;;7.74;72.38
11415;BME280;5763;42.714;23.244;2024-01-07T01:23:46;92948.22;;;8.35;72.47
11415;BME280;5763;42.714;23.244;2024-01-07T01:26:15;92932.88;;;8.38;72.68
11415;BME280;5763;42.714;23.244;2024-01-07T01:28:42;92833.41;;;7.62;72.88
11415;BME280;5763;42.714;23.244;2024-01-07T01:31:13;92929.34;;;8.32;74.21
11415;BME280;5763;42.714;23.244;2024-01-07T01:33:41;92762.41;;;7.06;73.54
11415;BME280;5763;42.714;23.244;2024-01-07T01:36:09;92734.69;;;7.02;74.26
11415;BME280;5763;42.714;23.244;2024-01-07T01:38:36;92872.66;;;8.16;74.70
11415;BME280;5763;42.714;23.244;2024-01-07T01:41:04;92839.53;;;7.97;75.21
11415;BME280;5763;42.714;23.244;2024-01-07T01:43:33;92708.66;;;7.15;75.28
11415;BME280;5763;42.714;23.244;2024-01-07T01:46:01;92832.16;;;8.03;76.29
11415;BME280;5763;42.714;23.244;2024-01-07T01:48:29;92742.91;;;7.27;75.27
11415;BME280;5763;42.714;23.244;2024-01-07T01:50:57;92864.03;;;8.37;75.19
11415;BME280;5763;42.714;23.244;2024-01-07T01:53:25;92854.63;;;8.38;75.50
11415;BME280;5763;42.714;23.244;2024-01-07T01:55:54;92656.34;;;7.26;75.47
11415;BME280;5763;42.714;23.244;2024-01-07T01:58:26;92847.81;;;8.54;75.34
11415;BME280;5763;42.714;23.244;2024-01-07T02:00:55;92775.72;;;8.04;75.16
11415;BME280;5763;42.714;23.244;2024-01-07T02:03:23;92781.38;;;8.00;75.41
11415;BME280;5763;42.714;23.244;2024-01-07T02:05:51;92694.34;;;7.60;75.76
11415;BME280;5763;42.714;23.244;2024-01-07T02:08:19;92865.72;;;8.60;75.29
11415;BME280;5763;42.714;23.244;2024-01-07T02:10:47;92779.19;;;8.04;75.29
11415;BME280;5763;42.714;23.244;2024-01-07T02:13:15;92792.78;;;8.24;74.74
11415;BME280;5763;42.714;23.244;2024-01-07T02:15:43;92713.06;;;7.78;74.53
11415;BME280;5763;42.714;23.244;2024-01-07T02:18:14;92702.91;;;7.53;75.52
11415;BME280;5763;42.714;23.244;2024-01-07T02:20:42;92755.06;;;8.17;76.07
11415;BME280;5763;42.714;23.244;2024-01-07T02:23:10;92646.25;;;7.52;76.22
11415;BME280;5763;42.714;23.244;2024-01-07T02:25:39;92824.94;;;8.71;75.91
11415;BME280;5763;42.714;23.244;2024-01-07T02:28:06;92798.22;;;8.75;75.69
11415;BME280;5763;42.714;23.244;2024-01-07T02:30:37;92728.25;;;8.36;75.83
11415;BME280;5763;42.714;23.244;2024-01-07T02:33:05;92751.47;;;8.57;76.27
11415;BME280;5763;42.714;23.244;2024-01-07T02:35:32;92595.84;;;7.56;76.39
11415;BME280;5763;42.714;23.244;2024-01-07T02:38:00;92683.28;;;8.20;76.84
11415;BME280;5763;42.714;23.244;2024-01-07T02:40:27;92585.88;;;7.48;76.64
11415;BME280;5763;42.714;23.244;2024-01-07T02:42:56;92714.47;;;8.45;76.61
11415;BME280;5763;42.714;23.244;2024-01-07T02:45:24;92594.44;;;7.66;76.69
11415;BME280;5763;42.714;23.244;2024-01-07T02:47:52;92648.38;;;7.93;76.57
11415;BME280;5763;42.714;23.244;2024-01-07T02:50:19;92718.94;;;8.48;77.08
11415;BME280;5763;42.714;23.244;2024-01-07T02:52:46;92657.31;;;7.94;77.69
11415;BME280;5763;42.714;23.244;2024-01-07T02:55:14;92725.06;;;8.37;77.60
11415;BME280;5763;42.714;23.244;2024-01-07T02:57:41;92676.56;;;7.90;78.00
11415;BME280;5763;42.714;23.244;2024-01-07T03:00:11;92608.13;;;7.46;78.15
11415;BME280;5763;42.714;23.244;2024-01-07T03:02:39;92626.56;;;7.62;78.31
11415;BME280;5763;42.714;23.244;2024-01-07T03:05:07;92791.91;;;8.64;77.94
11415;BME280;5763;42.714;23.244;2024-01-07T03:07:35;92638.03;;;7.46;77.98
11415;BME280;5763;42.714;23.244;2024-01-07T03:10:02;92692.38;;;7.86;79.26
11415;BME280;5763;42.714;23.244;2024-01-07T03:12:30;92712.00;;;7.70;80.73
11415;BME280;5763;42.714;23.244;2024-01-07T03:14:57;92728.88;;;7.74;82.37
11415;BME280;5763;42.714;23.244;2024-01-07T03:17:26;92658.41;;;7.11;82.28
11415;BME280;5763;42.714;23.244;2024-01-07T03:19:54;92661.19;;;7.36;82.39
11415;BME280;5763;42.714;23.244;2024-01-07T03:22:21;92811.25;;;8.35;82.81
11415;BME280;5763;42.714;23.244;2024-01-07T03:24:49;92825.53;;;8.55;82.66
11415;BME280;5763;42.714;23.244;2024-01-07T03:27:17;92850.16;;;8.66;82.55
11415;BME280;5763;42.714;23.244;2024-01-07T03:29:47;92816.06;;;8.76;82.41
11415;BME280;5763;42.714;23.244;2024-01-07T03:32:15;92758.31;;;8.47;82.36
11415;BME280;5763;42.714;23.244;2024-01-07T03:34:45;92650.09;;;7.91;81.45
11415;BME280;5763;42.714;23.244;2024-01-07T03:37:12;92819.22;;;9.00;82.05
11415;BME280;5763;42.714;23.244;2024-01-07T03:39:40;92646.84;;;7.87;82.16
11415;BME280;5763;42.714;23.244;2024-01-07T03:42:07;92626.75;;;7.84;81.82
11415;BME280;5763;42.714;23.244;2024-01-07T03:44:37;92670.34;;;8.15;82.58
11415;BME280;5763;42.714;23.244;2024-01-07T03:47:05;92745.22;;;8.82;82.46
11415;BME280;5763;42.714;23.244;2024-01-07T03:49:33;92764.19;;;9.02;82.11
11415;BME280;5763;42.714;23.244;2024-01-07T03:52:05;92692.53;;;8.59;82.87
11415;BME280;5763;42.714;23.244;2024-01-07T03:54:35;92722.00;;;8.97;83.28
11415;BME280;5763;42.714;23.244;2024-01-07T03:57:02;92744.75;;;9.25;82.63
11415;BME280;5763;42.714;23.244;2024-01-07T03:59:31;92665.78;;;8.63;82.53
11415;BME280;5763;42.714;23.244;2024-01-07T04:02:00;92778.13;;;9.57;82.14
11415;BME280;5763;42.714;23.244;2024-01-07T04:04:31;92708.94;;;9.12;81.94
11415;BME280;5763;42.714;23.244;2024-01-07T04:06:59;92701.00;;;9.09;82.04
11415;BME280;5763;42.714;23.244;2024-01-07T04:09:28;92716.25;;;9.32;81.93
11415;BME280;5763;42.714;23.244;2024-01-07T04:11:56;92725.47;;;9.40;81.28
11415;BME280;5763;42.714;23.244;2024-01-07T04:14:24;92656.00;;;8.88;81.67
11415;BME280;5763;42.714;23.244;2024-01-07T04:16:55;92622.47;;;8.71;81.75
11415;BME280;5763;42.714;23.244;2024-01-07T04:19:22;92784.72;;;9.87;81.52
11415;BME280;5763;42.714;23.244;2024-01-07T04:21:50;92602.19;;;8.83;81.79
11415;BME280;5763;42.714;23.244;2024-01-07T04:24:17;92577.69;;;8.88;81.63
11415;BME280;5763;42.714;23.244;2024-01-07T04:26:47;92671.16;;;9.47;81.98
11415;BME280;5763;42.714;23.244;2024-01-07T04:29:15;92726.34;;;9.79;82.01
11415;BME280;5763;42.714;23.244;2024-01-07T04:31:42;92722.91;;;9.89;82.43
11415;BME280;5763;42.714;23.244;2024-01-07T04:34:10;92659.97;;;9.45;83.23
11415;BME280;5763;42.714;23.244;2024-01-07T04:36:37;92645.75;;;9.25;82.87
11415;BME280;5763;42.714;23.244;2024-01-07T04:39:04;92740.31;;;9.97;82.94
11415;BME280;5763;42.714;23.244;2024-01-07T04:41:32;92687.81;;;9.60;81.63
11415;BME280;5763;42.714;23.244;2024-01-07T04:44:01;92670.63;;;9.43;82.67
11415;BME280;5763;42.714;23.244;2024-01-07T04:46:29;92665.66;;;9.36;83.11
11415;BME280;5763;42.714;23.244;2024-01-07T04:48:56;92658.44;;;9.28;82.58
11415;BME280;5763;42.714;23.244;2024-01-07T04:51:24;92660.97;;;9.48;82.57
11415;BME280;5763;42.714;23.244;2024-01-07T04:53:51;92645.50;;;9.23;82.14
11415;BME280;5763;42.714;23.244;2024-01-07T04:56:19;92627.66;;;9.22;81.75
11415;BME280;5763;42.714;23.244;2024-01-07T04:58:46;92609.59;;;8.77;82.54
11415;BME280;5763;42.714;23.244;2024-01-07T05:01:15;92594.97;;;8.80;82.20
11415;BME280;5763;42.714;23.244;2024-01-07T05:03:43;92764.03;;;9.64;82.67
11415;BME280;5763;42.714;23.244;2024-01-07T05:06:13;92592.91;;;8.58;82.66
11415;BME280;5763;42.714;23.244;2024-01-07T05:08:41;92638.41;;;8.89;83.05
11415;BME280;5763;42.714;23.244;2024-01-07T05:11:09;92609.38;;;8.38;82.94
11415;BME280;5763;42.714;23.244;2024-01-07T05:13:37;92701.94;;;9.00;83.74
11415;BME280;5763;42.714;23.244;2024-01-07T05:16:05;92643.81;;;8.78;84.48
11415;BME280;5763;42.714;23.244;2024-01-07T05:18:34;92666.91;;;8.88;84.83
11415;BME280;5763;42.714;23.244;2024-01-07T05:21:06;92725.16;;;9.32;84.85
11415;BME280;5763;42.714;23.244;2024-01-07T05:23:34;92560.06;;;8.36;84.12
11415;BME280;5763;42.714;23.244;2024-01-07T05:26:04;92733.22;;;9.52;83.96
11415;BME280;5763;42.714;23.244;2024-01-07T05:28:32;92559.28;;;8.30;83.72
11415;BME280;5763;42.714;23.244;2024-01-07T05:31:00;92701.28;;;9.16;84.12
11415;BME280;5763;42.714;23.244;2024-01-07T05:33:27;92755.03;;;9.52;83.84
11415;BME280;5763;42.714;23.244;2024-01-07T05:35:57;92641.41;;;8.96;83.67
11415;BME280;5763;42.714;23.244;2024-01-07T05:38:24;92555.53;;;8.22;82.63
11415;BME280;5763;42.714;23.244;2024-01-07T05:40:52;92766.38;;;9.34;84.02
11415;BME280;5763;42.714;23.244;2024-01-07T05:43:19;92534.38;;;8.06;84.14
11415;BME280;5763;42.714;23.244;2024-01-07T05:45:47;92641.31;;;8.74;84.94
11415;BME280;5763;42.714;23.244;2024-01-07T05:48:14;92644.75;;;8.69;84.65
11415;BME280;5763;42.714;23.244;2024-01-07T05:50:41;92606.19;;;8.45;85.17
11415;BME280;5763;42.714;23.244;2024-01-07T05:53:11;92737.00;;;9.18;85.30
11415;BME280;5763;42.714;23.244;2024-01-07T05:55:39;92684.63;;;9.09;84.90
11415;BME280;5763;42.714;23.244;2024-01-07T05:58:07;92568.75;;;8.35;84.37
11415;BME280;5763;42.714;23.244;2024-01-07T06:00:34;92555.53;;;8.22;83.65
11415;BME280;5763;42.714;23.244;2024-01-07T06:03:02;92674.75;;;9.22;83.93
11415;BME280;5763;42.714;23.244;2024-01-07T06:05:31;92556.13;;;8.37;80.48
11415;BME280;5763;42.714;23.244;2024-01-07T06:07:58;92637.78;;;9.10;79.85
11415;BME280;5763;42.714;23.244;2024-01-07T06:10:27;92694.84;;;9.78;78.86
11415;BME280;5763;42.714;23.244;2024-01-07T06:12:55;92541.69;;;8.79;78.68
11415;BME280;5763;42.714;23.244;2024-01-07T06:15:22;92684.88;;;9.75;78.90
11415;BME280;5763;42.714;23.244;2024-01-07T06:17:50;92523.31;;;8.68;78.35
11415;BME280;5763;42.714;23.244;2024-01-07T06:20:17;92721.44;;;9.99;78.81
11415;BME280;5763;42.714;23.244;2024-01-07T06:22:45;92586.59;;;8.83;79.88
11415;BME280;5763;42.714;23.244;2024-01-07T06:25:13;92579.38;;;8.80;79.98
11415;BME280;5763;42.714;23.244;2024-01-07T06:27:42;92571.47;;;8.88;79.98
11415;BME280;5763;42.714;23.244;2024-01-07T06:30:13;92600.28;;;9.00;80.77
11415;BME280;5763;42.714;23.244;2024-01-07T06:32:41;92576.88;;;8.77;81.27
11415;BME280;5763;42.714;23.244;2024-01-07T06:35:09;92619.59;;;8.96;81.87
11415;BME280;5763;42.714;23.244;2024-01-07T06:37:36;92676.72;;;9.16;82.99
11415;BME280;5763;42.714;23.244;2024-01-07T06:40:04;92623.75;;;8.81;83.63
11415;BME280;5763;42.714;23.244;2024-01-07T06:42:32;92680.50;;;8.82;84.39
11415;BME280;5763;42.714;23.244;2024-01-07T06:45:01;92761.94;;;9.42;84.93
11415;BME280;5763;42.714;23.244;2024-01-07T06:47:29;92669.47;;;9.02;85.49
11415;BME280;5763;42.714;23.244;2024-01-07T06:49:56;92613.94;;;8.52;85.70
11415;BME280;5763;42.714;23.244;2024-01-07T06:52:23;92689.56;;;9.05;85.80
11415;BME280;5763;42.714;23.244;2024-01-07T06:54:51;92729.44;;;9.44;86.17
11415;BME280;5763;42.714;23.244;2024-01-07T06:57:18;92664.75;;;9.03;86.19
11415;BME280;5763;42.714;23.244;2024-01-07T06:59:46;92613.34;;;8.79;85.58
11415;BME280;5763;42.714;23.244;2024-01-07T07:02:15;92657.59;;;9.11;85.40
11415;BME280;5763;42.714;23.244;2024-01-07T07:04:43;92665.63;;;9.25;84.86
11415;BME280;5763;42.714;23.244;2024-01-07T07:07:10;92729.53;;;9.66;84.47
11415;BME280;5763;42.714;23.244;2024-01-07T07:09:37;92681.25;;;9.30;84.80
11415;BME280;5763;42.714;23.244;2024-01-07T07:12:06;92717.19;;;9.23;85.11
11415;BME280;5763;42.714;23.244;2024-01-07T07:14:35;92593.72;;;8.75;84.60
11415;BME280;5763;42.714;23.244;2024-01-07T07:17:02;92657.88;;;9.18;84.49
11415;BME280;5763;42.714;23.244;2024-01-07T07:19:31;92645.00;;;9.19;84.31
11415;BME280;5763;42.714;23.244;2024-01-07T07:21:58;92709.16;;;9.56;83.47
11415;BME280;5763;42.714;23.244;2024-01-07T07:24:26;92580.91;;;8.92;83.47
11415;BME280;5763;42.714;23.244;2024-01-07T07:26:54;92738.81;;;10.02;83.19
11415;BME280;5763;42.714;23.244;2024-01-07T07:29:22;92676.41;;;9.56;83.26
11415;BME280;5763;42.714;23.244;2024-01-07T07:31:49;92727.19;;;10.07;82.87
11415;BME280;5763;42.714;23.244;2024-01-07T07:34:17;92704.50;;;9.84;82.69
11415;BME280;5763;42.714;23.244;2024-01-07T07:36:47;92637.41;;;9.56;82.22
11415;BME280;5763;42.714;23.244;2024-01-07T07:39:14;92709.81;;;10.04;82.30
11415;BME280;5763;42.714;23.244;2024-01-07T07:41:42;92666.97;;;9.57;81.76
11415;BME280;5763;42.714;23.244;2024-01-07T07:44:09;92627.25;;;9.56;80.84
11415;BME280;5763;42.714;23.244;2024-01-07T07:46:37;92624.19;;;9.32;81.44
11415;BME280;5763;42.714;23.244;2024-01-07T07:49:04;92723.72;;;10.06;80.89
11415;BME280;5763;42.714;23.244;2024-01-07T07:51:32;92577.38;;;9.61;79.90
11415;BME280;5763;42.714;23.244;2024-01-07T07:54:01;92576.34;;;9.53;79.74
11415;BME280;5763;42.714;23.244;2024-01-07T07:56:29;92680.53;;;10.43;79.98
11415;BME280;5763;42.714;23.244;2024-01-07T07:58:56;92750.88;;;10.70;80.20
11415;BME280;5763;42.714;23.244;2024-01-07T08:01:24;92608.94;;;9.90;78.88
11415;BME280;5763;42.714;23.244;2024-01-07T08:03:51;92661.38;;;10.54;78.81
11415;BME280;5763;42.714;23.244;2024-01-07T08:06:19;92639.03;;;10.45;78.66
11415;BME280;5763;42.714;23.244;2024-01-07T08:08:47;92706.13;;;10.84;78.88
11415;BME280;5763;42.714;23.244;2024-01-07T08:11:15;92599.53;;;10.35;77.97
11415;BME280;5763;42.714;23.244;2024-01-07T08:13:44;92573.44;;;10.17;77.85
11415;BME280;5763;42.714;23.244;2024-01-07T08:16:11;92570.19;;;10.02;77.82
11415;BME280;5763;42.714;23.244;2024-01-07T08:18:38;92571.94;;;9.94;78.14
11415;BME280;5763;42.714;23.244;2024-01-07T08:21:06;92713.03;;;11.07;78.07
11415;BME280;5763;42.714;23.244;2024-01-07T08:23:34;92648.91;;;10.75;77.27
11415;BME280;5763;42.714;23.244;2024-01-07T08:26:02;92734.91;;;11.18;77.07
11415;BME280;5763;42.714;23.244;2024-01-07T08:28:31;92565.47;;;9.97;77.15
11415;BME280;5763;42.714;23.244;2024-01-07T08:30:58;92547.13;;;10.20;76.54
11415;BME280;5763;42.714;23.244;2024-01-07T08:33:26;92552.09;;;10.16;77.26
11415;BME280;5763;42.714;23.244;2024-01-07T08:35:54;92582.91;;;10.16;76.83
11415;BME280;5763;42.714;23.244;2024-01-07T08:38:22;92628.03;;;10.72;76.75
11415;BME280;5763;42.714;23.244;2024-01-07T08:40:51;92556.78;;;10.26;77.15
11415;BME280;5763;42.714;23.244;2024-01-07T08:43:18;92581.34;;;10.48;76.18
11415;BME280;5763;42.714;23.244;2024-01-07T08:45:47;92719.41;;;11.48;75.81
11415;BME280;5763;42.714;23.244;2024-01-07T08:48:15;92706.00;;;11.28;74.98
11415;BME280;5763;42.714;23.244;2024-01-07T08:50:42;92655.38;;;10.94;72.16
11415;BME280;5763;42.714;23.244;2024-01-07T08:53:09;92678.47;;;11.04;73.26
11415;BME280;5763;42.714;23.244;2024-01-07T08:55:38;92554.28;;;10.34;74.02
11415;BME280;5763;42.714;23.244;2024-01-07T08:58:06;92574.34;;;10.64;75.25
11415;BME280;5763;42.714;23.244;2024-01-07T09:00:34;92631.38;;;11.22;75.32
11415;BME280;5763;42.714;23.244;2024-01-07T09:03:03;92650.75;;;11.35;74.94
11415;BME280;5763;42.714;23.244;2024-01-07T09:05:32;92545.22;;;10.83;73.89
11415;BME280;5763;42.714;23.244;2024-01-07T09:08:00;92696.00;;;12.04;73.20
11415;BME280;5763;42.714;23.244;2024-01-07T09:10:27;92642.66;;;11.70;73.77
11415;BME280;5763;42.714;23.244;2024-01-07T09:12:55;92546.19;;;10.91;73.44
11415;BME280;5763;42.714;23.244;2024-01-07T09:15:22;92705.09;;;12.29;72.81
11415;BME280;5763;42.714;23.244;2024-01-07T09:17:49;92699.66;;;12.58;71.41
11415;BME280;5763;42.714;23.244;2024-01-07T09:20:18;92640.22;;;12.02;70.43
11415;BME280;5763;42.714;23.244;2024-01-07T09:22:46;92554.72;;;12.03;70.39
11415;BME280;5763;42.714;23.244;2024-01-07T09:25:14;92598.66;;;12.57;68.94
11415;BME280;5763;42.714;23.244;2024-01-07T09:27:42;92565.91;;;12.64;68.03
11415;BME280;5763;42.714;23.244;2024-01-07T09:30:11;92743.56;;;13.89;66.99
11415;BME280;5763;42.714;23.244;2024-01-07T09:32:40;92684.09;;;13.49;67.75
11415;BME280;5763;42.714;23.244;2024-01-07T09:35:08;92711.50;;;14.34;63.29
11415;BME280;5763;42.714;23.244;2024-01-07T09:37:37;92626.84;;;13.90;61.04
11415;BME280;5763;42.714;23.244;2024-01-07T09:40:05;92565.66;;;13.53;62.60
11415;BME280;5763;42.714;23.244;2024-01-07T09:42:34;92581.31;;;13.39;63.74
11415;BME280;5763;42.714;23.244;2024-01-07T09:45:02;92626.75;;;13.77;64.40
11415;BME280;5763;42.714;23.244;2024-01-07T09:47:30;92684.50;;;13.96;60.71
11415;BME280;5763;42.714;23.244;2024-01-07T09:50:03;92631.81;;;14.60;59.14
11415;BME280;5763;42.714;23.244;2024-01-07T09:52:33;92582.00;;;15.03;56.82
11415;BME280;5763;42.714;23.244;2024-01-07T09:55:03;92554.00;;;15.51;54.48
11415;BME280;5763;42.714;23.244;2024-01-07T09:57:31;92660.41;;;16.52;54.31
11415;BME280;5763;42.714;23.244;2024-01-07T10:00:00;92749.09;;;16.83;49.30
11415;BME280;5763;42.714;23.244;2024-01-07T10:02:31;92690.41;;;16.89;49.08
11415;BME280;5763;42.714;23.244;2024-01-07T10:04:58;92698.69;;;17.10;47.75
11415;BME280;5763;42.714;23.244;2024-01-07T10:07:45;92703.34;;;17.15;46.76
11415;BME280;5763;42.714;23.244;2024-01-07T10:10:15;92538.56;;;15.81;46.37
11415;BME280;5763;42.714;23.244;2024-01-07T10:12:44;92586.25;;;16.02;46.50
11415;BME280;5763;42.714;23.244;2024-01-07T10:15:12;92690.53;;;16.63;47.43
11415;BME280;5763;42.714;23.244;2024-01-07T10:17:40;92604.41;;;16.31;46.48
11415;BME280;5763;42.714;23.244;2024-01-07T10:20:08;92651.88;;;16.63;45.86
11415;BME280;5763;42.714;23.244;2024-01-07T10:22:37;92673.31;;;16.24;46.91
11415;BME280;5763;42.714;23.244;2024-01-07T10:25:05;92512.63;;;15.04;48.01
11415;BME280;5763;42.714;23.244;2024-01-07T10:27:36;92588.25;;;15.29;47.94
11415;BME280;5763;42.714;23.244;2024-01-07T10:30:05;92682.03;;;16.15;48.12
11415;BME280;5763;42.714;23.244;2024-01-07T10:32:35;92646.19;;;16.35;48.06
11415;BME280;5763;42.714;23.244;2024-01-07T10:35:03;92619.78;;;16.06;46.84
11415;BME280;5763;42.714;23.244;2024-01-07T10:37:31;92561.88;;;15.93;46.41
11415;BME280;5763;42.714;23.244;2024-01-07T10:39:59;92504.13;;;15.15;47.06
11415;BME280;5763;42.714;23.244;2024-01-07T10:42:30;92635.03;;;16.20;47.41
11415;BME280;5763;42.714;23.244;2024-01-07T10:45:00;92575.13;;;15.95;46.70
11415;BME280;5763;42.714;23.244;2024-01-07T10:47:30;92573.91;;;15.83;46.72
11415;BME280;5763;42.714;23.244;2024-01-07T10:49:58;92606.81;;;16.35;46.41
11415;BME280;5763;42.714;23.244;2024-01-07T10:52:27;92539.69;;;15.99;45.48
11415;BME280;5763;42.714;23.244;2024-01-07T10:54:56;92587.72;;;16.03;46.19
11415;BME280;5763;42.714;23.244;2024-01-07T10:57:32;92576.06;;;15.51;46.75
11415;BME280;5763;42.714;23.244;2024-01-07T11:00:03;92607.75;;;15.70;46.66
11415;BME280;5763;42.714;23.244;2024-01-07T11:02:35;92673.25;;;16.03;46.34
11415;BME280;5763;42.714;23.244;2024-01-07T11:05:08;92471.09;;;14.50;47.61
11415;BME280;5763;42.714;23.244;2024-01-07T11:07:42;92652.94;;;15.67;46.78
11415;BME280;5763;42.714;23.244;2024-01-07T11:10:13;92527.25;;;15.72;45.44
11415;BME280;5763;42.714;23.244;2024-01-07T11:12:43;92589.66;;;16.90;44.24
11415;BME280;5763;42.714;23.244;2024-01-07T11:15:51;92506.47;;;17.01;42.29
11415;BME280;5763;42.714;23.244;2024-01-07T11:18:19;92589.25;;;18.13;40.57
11415;BME280;5763;42.714;23.244;2024-01-07T11:20:47;92585.91;;;19.11;38.39
11415;BME280;5763;42.714;23.244;2024-01-07T11:23:30;92518.44;;;19.31;nan
11415;BME280;5763;42.714;23.244;2024-01-07T11:25:59;92496.31;;;18.71;36.16
11415;BME280;5763;42.714;23.244;2024-01-07T11:28:47;92560.28;;;18.14;38.54
11415;BME280;5763;42.714;23.244;2024-01-07T11:31:21;92673.25;;;18.59;38.66
11415;BME280;5763;42.714;23.244;2024-01-07T11:33:51;92593.34;;;17.13;40.54
11415;BME280;5763;42.714;23.244;2024-01-07T11:36:20;92479.47;;;15.56;43.20
11415;BME280;5763;42.714;23.244;2024-01-07T11:38:50;92639.88;;;16.14;44.91
11415;BME280;5763;42.714;23.244;2024-01-07T11:41:21;92634.28;;;15.60;46.41
11415;BME280;5763;42.714;23.244;2024-01-07T11:43:57;92492.56;;;13.94;47.96
11415;BME280;5763;42.714;23.244;2024-01-07T11:46:32;92612.00;;;14.62;49.03
11415;BME280;5763;42.714;23.244;2024-01-07T11:49:03;92519.34;;;14.07;49.03
11415;BME280;5763;42.714;23.244;2024-01-07T11:51:34;92579.03;;;14.12;49.43
11415;BME280;5763;42.714;23.244;2024-01-07T11:54:06;92472.13;;;13.58;50.39
11415;BME280;5763;42.714;23.244;2024-01-07T11:56:40;92508.38;;;13.75;51.31
11415;BME280;5763;42.714;23.244;2024-01-07T11:59:11;92585.88;;;14.05;51.14
11415;BME280;5763;42.714;23.244;2024-01-07T12:01:43;92497.78;;;13.79;51.01
11415;BME280;5763;42.714;23.244;2024-01-07T12:04:12;92636.22;;;14.50;50.36
11415;BME280;5763;42.714;23.244;2024-01-07T12:06:41;92493.09;;;13.43;51.48
11415;BME280;5763;42.714;23.244;2024-01-07T12:09:12;92523.75;;;13.28;53.12
11415;BME280;5763;42.714;23.244;2024-01-07T12:11:42;92509.28;;;12.85;53.32
11415;BME280;5763;42.714;23.244;2024-01-07T12:14:17;92567.78;;;13.41;54.03
11415;BME280;5763;42.714;23.244;2024-01-07T12:16:52;92636.25;;;13.39;54.51
11415;BME280;5763;42.714;23.244;2024-01-07T12:19:22;92556.84;;;13.17;55.34
11415;BME280;5763;42.714;23.244;2024-01-07T12:22:04;92601.03;;;13.19;56.06
11415;BME280;5763;42.714;23.244;2024-01-07T12:24:33;92608.13;;;13.09;56.18
11415;BME280;5763;42.714;23.244;2024-01-07T12:27:04;92648.03;;;13.34;56.58
11415;BME280;5763;42.714;23.244;2024-01-07T12:29:34;92473.00;;;12.31;56.62
11415;BME280;5763;42.714;23.244;2024-01-07T12:32:07;92634.47;;;13.42;56.91
11415;BME280;5763;42.714;23.244;2024-01-07T12:34:38;92534.97;;;12.64;56.75
11415;BME280;5763;42.714;23.244;2024-01-07T12:37:13;92525.25;;;12.39;58.52
11415;BME280;5763;42.714;23.244;2024-01-07T12:39:40;92582.63;;;12.85;60.39
11415;BME280;5763;42.714;23.244;2024-01-07T12:42:08;92635.00;;;13.16;60.19
11415;BME280;5763;42.714;23.244;2024-01-07T12:44:36;92676.19;;;13.16;59.54
11415;BME280;5763;42.714;23.244;2024-01-07T12:47:06;92567.72;;;12.56;59.68
11415;BME280;5763;42.714;23.244;2024-01-07T12:49:34;92651.47;;;13.16;59.77
11415;BME280;5763;42.714;23.244;2024-01-07T12:52:01;92515.16;;;11.99;60.15
11415;BME280;5763;42.714;23.244;2024-01-07T12:54:29;92544.88;;;12.48;59.43
11415;BME280;5763;42.714;23.244;2024-01-07T12:56:57;92654.00;;;13.14;58.98
11415;BME280;5763;42.714;23.244;2024-01-07T12:59:24;92598.59;;;12.62;59.96
11415;BME280;5763;42.714;23.244;2024-01-07T13:01:52;92565.66;;;12.38;60.43
11415;BME280;5763;42.714;23.244;2024-01-07T13:04:21;92643.59;;;12.78;60.39
11415;BME280;5763;42.714;23.244;2024-01-07T13:06:49;92601.69;;;12.77;60.71
11415;BME280;5763;42.714;23.244;2024-01-07T13:09:16;92668.53;;;13.09;61.02
11415;BME280;5763;42.714;23.244;2024-01-07T13:11:44;92501.31;;;11.86;61.66
11415;BME280;5763;42.714;23.244;2024-01-07T13:14:12;92512.75;;;11.90;62.13
11415;BME280;5763;42.714;23.244;2024-01-07T13:16:40;92609.94;;;12.77;62.18